sensor_id;sensor_type;location;lat;lon;timestamp;pressure;altitude;pressure_sealevel;temperature;humidity
7478;BME280;3780;42.424;25.636;2022-08-19T00:01:25;98652.09;;;25.29;55.35
7478;BME280;3780;42.424;25.636;2022-08-19T00:03:52;98590.63;;;24.86;55.61
7478;BME280;3780;42.424;25.636;2022-08-19T00:06:18;98638.91;;;25.19;55.68
7478;BME280;3780;42.424;25.636;2022-08-19T00:08:43;98630.03;;;25.06;55.68
7478;BME280;3780;42.424;25.636;2022-08-19T00:11:10;98610.53;;;24.99;55.71
7478;BME280;3780;42.424;25.636;2022-08-19T00:13:36;98626.91;;;25.08;55.48
7478;BME280;3780;42.424;25.636;2022-08-19T00:16:04;98568.03;;;24.81;55.80
7478;BME280;3780;42.424;25.636;2022-08-19T00:18:31;98629.41;;;25.16;55.61
7478;BME280;3780;42.424;25.636;2022-08-19T00:20:57;98638.59;;;25.24;56.05
7478;BME280;3780;42.424;25.636;2022-08-19T00:23:23;98615.53;;;25.13;55.90
7478;BME280;3780;42.424;25.636;2022-08-19T00:25:49;98595.03;;;24.91;55.65
7478;BME280;3780;42.424;25.636;2022-08-19T00:28:16;98635.41;;;25.22;55.87
7478;BME280;3780;42.424;25.636;2022-08-19T00:30:41;98644.63;;;25.30;55.83
7478;BME280;3780;42.424;25.636;2022-08-19T00:33:07;98647.44;;;25.33;55.69
7478;BME280;3780;42.424;25.636;2022-08-19T00:35:33;98635.91;;;25.28;55.60
7478;BME280;3780;42.424;25.636;2022-08-19T00:37:59;98544.66;;;24.75;55.42
7478;BME280;3780;42.424;25.636;2022-08-19T00:40:25;98615.25;;;25.18;56.00
7478;BME280;3780;42.424;25.636;2022-08-19T00:42:50;98596.75;;;24.99;55.61
7478;BME280;3780;42.424;25.636;2022-08-19T00:45:20;98643.41;;;25.27;55.53
7478;BME280;3780;42.424;25.636;2022-08-19T00:47:47;98642.59;;;25.27;55.81
7478;BME280;3780;42.424;25.636;2022-08-19T00:50:14;98624.63;;;25.13;56.03
7478;BME280;3780;42.424;25.636;2022-08-19T00:52:43;98642.59;;;25.27;55.78
7478;BME280;3780;42.424;25.636;2022-08-19T00:55:13;98638.69;;;25.28;55.67
7478;BME280;3780;42.424;25.636;2022-08-19T00:57:45;98611.78;;;25.02;56.00
7478;BME280;3780;42.424;25.636;2022-08-19T01:00:15;98639.22;;;25.14;55.74
7478;BME280;3780;42.424;25.636;2022-08-19T01:02:42;98515.84;;;24.30;56.32
7478;BME280;3780;42.424;25.636;2022-08-19T01:05:13;98658.84;;;25.09;56.11
7478;BME280;3780;42.424;25.636;2022-08-19T01:07:40;98660.94;;;24.96;56.95
7478;BME280;3780;42.424;25.636;2022-08-19T01:10:11;98657.41;;;24.96;57.01
7478;BME280;3780;42.424;25.636;2022-08-19T01:12:38;98658.63;;;24.98;58.35
7478;BME280;3780;42.424;25.636;2022-08-19T01:15:08;98656.75;;;25.02;58.43
7478;BME280;3780;42.424;25.636;2022-08-19T01:17:36;98630.16;;;24.94;57.74
7478;BME280;3780;42.424;25.636;2022-08-19T01:20:05;98636.63;;;25.02;58.12
7478;BME280;3780;42.424;25.636;2022-08-19T01:22:59;98637.75;;;25.01;58.03
7478;BME280;3780;42.424;25.636;2022-08-19T01:25:27;98650.84;;;25.04;58.00
7478;BME280;3780;42.424;25.636;2022-08-19T01:27:53;98619.78;;;24.87;57.90
7478;BME280;3780;42.424;25.636;2022-08-19T01:30:22;98600.94;;;24.70;58.16
7478;BME280;3780;42.424;25.636;2022-08-19T01:32:51;98574.56;;;24.50;58.85
7478;BME280;3780;42.424;25.636;2022-08-19T01:35:17;98636.78;;;24.89;58.56
7478;BME280;3780;42.424;25.636;2022-08-19T01:40:09;98602.09;;;24.69;58.34
7478;BME280;3780;42.424;25.636;2022-08-19T01:42:35;98629.53;;;24.81;58.60
7478;BME280;3780;42.424;25.636;2022-08-19T01:45:00;98651.88;;;24.96;58.84
7478;BME280;3780;42.424;25.636;2022-08-19T01:47:26;98642.78;;;24.95;58.44
7478;BME280;3780;42.424;25.636;2022-08-19T01:49:51;98652.59;;;24.92;58.68
7478;BME280;3780;42.424;25.636;2022-08-19T01:52:17;98523.78;;;24.12;58.68
7478;BME280;3780;42.424;25.636;2022-08-19T01:54:42;98567.25;;;24.38;58.70
7478;BME280;3780;42.424;25.636;2022-08-19T01:57:10;98607.91;;;24.64;58.90
7478;BME280;3780;42.424;25.636;2022-08-19T01:59:37;98620.69;;;24.72;58.39
7478;BME280;3780;42.424;25.636;2022-08-19T02:02:05;98581.09;;;24.42;58.79
7478;BME280;3780;42.424;25.636;2022-08-19T02:04:35;98653.38;;;24.93;59.00
7478;BME280;3780;42.424;25.636;2022-08-19T02:07:02;98622.28;;;24.73;58.49
7478;BME280;3780;42.424;25.636;2022-08-19T02:09:28;98621.34;;;24.65;59.16
7478;BME280;3780;42.424;25.636;2022-08-19T02:11:53;98650.06;;;24.84;59.09
7478;BME280;3780;42.424;25.636;2022-08-19T02:14:19;98650.78;;;24.81;59.20
7478;BME280;3780;42.424;25.636;2022-08-19T02:16:44;98664.16;;;24.79;59.31
7478;BME280;3780;42.424;25.636;2022-08-19T02:19:10;98567.59;;;24.17;59.50
7478;BME280;3780;42.424;25.636;2022-08-19T02:21:35;98662.56;;;24.78;59.51
7478;BME280;3780;42.424;25.636;2022-08-19T02:24:02;98662.06;;;24.72;58.66
7478;BME280;3780;42.424;25.636;2022-08-19T02:26:27;98574.91;;;24.09;59.30
7478;BME280;3780;42.424;25.636;2022-08-19T02:28:54;98585.63;;;24.15;59.38
7478;BME280;3780;42.424;25.636;2022-08-19T02:31:22;98609.13;;;24.28;59.15
7478;BME280;3780;42.424;25.636;2022-08-19T02:33:48;98661.47;;;24.63;59.14
7478;BME280;3780;42.424;25.636;2022-08-19T02:36:14;98575.25;;;24.08;59.26
7478;BME280;3780;42.424;25.636;2022-08-19T02:38:40;98674.88;;;24.64;59.30
7478;BME280;3780;42.424;25.636;2022-08-19T02:41:16;98591.44;;;24.09;59.46
7478;BME280;3780;42.424;25.636;2022-08-19T02:43:42;98568.56;;;23.90;59.75
7478;BME280;3780;42.424;25.636;2022-08-19T02:46:27;98557.56;;;23.90;59.53
7478;BME280;3780;42.424;25.636;2022-08-19T02:48:57;98632.41;;;24.30;59.36
7478;BME280;3780;42.424;25.636;2022-08-19T02:51:25;98667.28;;;24.58;60.11
7478;BME280;3780;42.424;25.636;2022-08-19T02:53:51;98541.72;;;23.67;60.06
7478;BME280;3780;42.424;25.636;2022-08-19T02:56:18;98673.38;;;24.48;59.66
7478;BME280;3780;42.424;25.636;2022-08-19T02:58:44;98650.56;;;24.31;59.82
7478;BME280;3780;42.424;25.636;2022-08-19T03:01:11;98613.25;;;23.99;60.18
7478;BME280;3780;42.424;25.636;2022-08-19T03:03:44;98628.38;;;23.89;60.94
7478;BME280;3780;42.424;25.636;2022-08-19T03:06:12;98657.56;;;24.09;61.08
7478;BME280;3780;42.424;25.636;2022-08-19T03:08:40;98678.47;;;24.30;60.42
7478;BME280;3780;42.424;25.636;2022-08-19T03:11:06;98627.22;;;23.90;60.43
7478;BME280;3780;42.424;25.636;2022-08-19T03:13:31;98625.13;;;24.03;60.28
7478;BME280;3780;42.424;25.636;2022-08-19T03:15:57;98679.84;;;24.36;60.58
7478;BME280;3780;42.424;25.636;2022-08-19T03:18:23;98689.88;;;24.28;60.53
7478;BME280;3780;42.424;25.636;2022-08-19T03:20:51;98686.16;;;24.36;60.19
7478;BME280;3780;42.424;25.636;2022-08-19T03:23:20;98690.50;;;24.38;60.45
7478;BME280;3780;42.424;25.636;2022-08-19T03:25:48;98693.69;;;24.40;60.09
7478;BME280;3780;42.424;25.636;2022-08-19T03:28:15;98695.66;;;24.39;59.81
7478;BME280;3780;42.424;25.636;2022-08-19T03:30:42;98700.34;;;24.39;59.86
7478;BME280;3780;42.424;25.636;2022-08-19T03:33:10;98699.94;;;24.36;59.65
7478;BME280;3780;42.424;25.636;2022-08-19T03:35:37;98691.94;;;24.31;59.87
7478;BME280;3780;42.424;25.636;2022-08-19T03:38:06;98692.16;;;24.07;60.37
7478;BME280;3780;42.424;25.636;2022-08-19T03:40:35;98652.94;;;23.63;60.77
7478;BME280;3780;42.424;25.636;2022-08-19T03:43:01;98688.63;;;23.91;61.24
7478;BME280;3780;42.424;25.636;2022-08-19T03:45:27;98718.91;;;23.91;61.59
7478;BME280;3780;42.424;25.636;2022-08-19T03:47:52;98684.75;;;23.76;61.69
7478;BME280;3780;42.424;25.636;2022-08-19T03:50:18;98717.38;;;24.09;61.73
7478;BME280;3780;42.424;25.636;2022-08-19T03:52:51;98713.28;;;24.19;61.31
7478;BME280;3780;42.424;25.636;2022-08-19T03:55:18;98715.84;;;24.27;60.91
7478;BME280;3780;42.424;25.636;2022-08-19T03:57:43;98684.38;;;24.13;60.64
7478;BME280;3780;42.424;25.636;2022-08-19T04:00:10;98718.50;;;24.40;59.79
7478;BME280;3780;42.424;25.636;2022-08-19T04:02:36;98717.34;;;24.41;59.52
7478;BME280;3780;42.424;25.636;2022-08-19T04:05:02;98669.97;;;24.19;59.53
7478;BME280;3780;42.424;25.636;2022-08-19T04:07:27;98708.81;;;24.30;59.48
7478;BME280;3780;42.424;25.636;2022-08-19T04:09:53;98715.09;;;24.30;59.05
7478;BME280;3780;42.424;25.636;2022-08-19T04:12:19;98632.19;;;23.85;59.31
7478;BME280;3780;42.424;25.636;2022-08-19T04:14:46;98720.09;;;24.41;59.60
7478;BME280;3780;42.424;25.636;2022-08-19T04:17:20;98722.84;;;24.41;58.83
7478;BME280;3780;42.424;25.636;2022-08-19T04:19:47;98660.44;;;23.97;59.29
7478;BME280;3780;42.424;25.636;2022-08-19T04:22:12;98735.09;;;24.43;59.87
7478;BME280;3780;42.424;25.636;2022-08-19T04:24:38;98695.28;;;24.25;59.41
7478;BME280;3780;42.424;25.636;2022-08-19T04:27:04;98736.22;;;24.58;58.57
7478;BME280;3780;42.424;25.636;2022-08-19T04:29:30;98655.66;;;24.14;59.12
7478;BME280;3780;42.424;25.636;2022-08-19T04:31:57;98732.69;;;24.77;58.72
7478;BME280;3780;42.424;25.636;2022-08-19T04:34:26;98653.50;;;24.39;58.34
7478;BME280;3780;42.424;25.636;2022-08-19T04:36:54;98745.38;;;25.01;58.30
7478;BME280;3780;42.424;25.636;2022-08-19T04:39:29;98713.88;;;24.82;57.72
7478;BME280;3780;42.424;25.636;2022-08-19T04:42:15;98750.19;;;25.23;57.42
7478;BME280;3780;42.424;25.636;2022-08-19T04:44:59;98743.84;;;25.22;56.85
7478;BME280;3780;42.424;25.636;2022-08-19T04:47:25;98753.09;;;25.30;55.67
7478;BME280;3780;42.424;25.636;2022-08-19T04:49:50;98753.13;;;25.34;55.87
7478;BME280;3780;42.424;25.636;2022-08-19T04:52:16;98727.25;;;25.19;56.71
7478;BME280;3780;42.424;25.636;2022-08-19T04:54:41;98671.91;;;24.92;56.90
7478;BME280;3780;42.424;25.636;2022-08-19T04:57:07;98717.06;;;25.23;56.79
7478;BME280;3780;42.424;25.636;2022-08-19T04:59:36;98686.06;;;25.10;56.56
7478;BME280;3780;42.424;25.636;2022-08-19T05:02:03;98688.38;;;25.28;56.59
7478;BME280;3780;42.424;25.636;2022-08-19T05:04:29;98731.44;;;25.55;56.70
7478;BME280;3780;42.424;25.636;2022-08-19T05:06:56;98689.47;;;25.46;56.86
7478;BME280;3780;42.424;25.636;2022-08-19T05:09:22;98634.63;;;25.21;56.20
7478;BME280;3780;42.424;25.636;2022-08-19T05:11:48;98741.06;;;26.11;56.18
7478;BME280;3780;42.424;25.636;2022-08-19T05:14:16;98689.16;;;25.74;55.36
7478;BME280;3780;42.424;25.636;2022-08-19T05:16:42;98758.25;;;26.23;55.73
7478;BME280;3780;42.424;25.636;2022-08-19T05:19:07;98697.19;;;26.05;56.37
7478;BME280;3780;42.424;25.636;2022-08-19T05:21:51;98693.31;;;26.14;53.98
7478;BME280;3780;42.424;25.636;2022-08-19T05:24:36;98724.25;;;26.46;54.18
7478;BME280;3780;42.424;25.636;2022-08-19T05:27:02;98729.47;;;26.54;54.00
7478;BME280;3780;42.424;25.636;2022-08-19T05:29:29;98709.84;;;26.63;54.29
7478;BME280;3780;42.424;25.636;2022-08-19T05:31:57;98749.28;;;27.16;52.47
7478;BME280;3780;42.424;25.636;2022-08-19T05:34:24;98690.50;;;26.97;51.45
7478;BME280;3780;42.424;25.636;2022-08-19T05:36:54;98691.03;;;27.09;50.96
7478;BME280;3780;42.424;25.636;2022-08-19T05:39:27;98672.25;;;27.29;52.10
7478;BME280;3780;42.424;25.636;2022-08-19T05:41:59;98658.03;;;27.34;49.78
7478;BME280;3780;42.424;25.636;2022-08-19T05:44:27;98728.78;;;28.13;50.37
7478;BME280;3780;42.424;25.636;2022-08-19T05:46:57;98697.81;;;28.04;48.81
7478;BME280;3780;42.424;25.636;2022-08-19T05:49:23;98758.31;;;28.43;49.19
7478;BME280;3780;42.424;25.636;2022-08-19T05:51:50;98766.31;;;28.51;48.98
7478;BME280;3780;42.424;25.636;2022-08-19T05:54:16;98701.53;;;28.26;48.46
7478;BME280;3780;42.424;25.636;2022-08-19T05:56:43;98759.75;;;28.84;48.32
7478;BME280;3780;42.424;25.636;2022-08-19T05:59:10;98757.50;;;29.08;47.47
7478;BME280;3780;42.424;25.636;2022-08-19T06:01:41;98667.69;;;28.68;46.31
7478;BME280;3780;42.424;25.636;2022-08-19T06:04:07;98726.94;;;29.15;46.35
7478;BME280;3780;42.424;25.636;2022-08-19T06:06:34;98648.16;;;28.40;46.83
7478;BME280;3780;42.424;25.636;2022-08-19T06:09:05;98651.81;;;28.58;46.99
7478;BME280;3780;42.424;25.636;2022-08-19T06:11:40;98736.09;;;29.23;47.13
7478;BME280;3780;42.424;25.636;2022-08-19T06:14:11;98707.91;;;29.10;45.66
7478;BME280;3780;42.424;25.636;2022-08-19T06:16:38;98768.31;;;29.45;45.99
7478;BME280;3780;42.424;25.636;2022-08-19T06:19:06;98738.09;;;29.26;46.58
7478;BME280;3780;42.424;25.636;2022-08-19T06:21:34;98721.06;;;29.31;45.97
7478;BME280;3780;42.424;25.636;2022-08-19T06:24:02;98762.03;;;29.59;45.19
7478;BME280;3780;42.424;25.636;2022-08-19T06:26:28;98727.00;;;29.33;46.25
7478;BME280;3780;42.424;25.636;2022-08-19T06:28:54;98758.03;;;29.49;45.60
7478;BME280;3780;42.424;25.636;2022-08-19T06:31:26;98761.22;;;29.51;45.98
7478;BME280;3780;42.424;25.636;2022-08-19T06:33:52;98741.31;;;29.38;45.88
7478;BME280;3780;42.424;25.636;2022-08-19T06:36:25;98763.59;;;29.49;46.42
7478;BME280;3780;42.424;25.636;2022-08-19T06:38:58;98767.97;;;29.50;46.36
7478;BME280;3780;42.424;25.636;2022-08-19T06:41:25;98736.16;;;29.37;46.79
7478;BME280;3780;42.424;25.636;2022-08-19T06:43:51;98765.56;;;29.52;45.97
7478;BME280;3780;42.424;25.636;2022-08-19T06:46:17;98763.22;;;29.72;45.33
7478;BME280;3780;42.424;25.636;2022-08-19T06:48:44;98659.94;;;29.27;47.01
7478;BME280;3780;42.424;25.636;2022-08-19T06:51:10;98674.63;;;29.31;44.71
7478;BME280;3780;42.424;25.636;2022-08-19T06:53:35;98758.06;;;29.81;45.53
7478;BME280;3780;42.424;25.636;2022-08-19T06:56:01;98698.50;;;29.57;44.56
7478;BME280;3780;42.424;25.636;2022-08-19T06:58:30;98695.72;;;29.61;44.18
7478;BME280;3780;42.424;25.636;2022-08-19T07:00:59;98773.19;;;30.09;43.74
7478;BME280;3780;42.424;25.636;2022-08-19T07:03:29;98754.09;;;30.03;43.77
7478;BME280;3780;42.424;25.636;2022-08-19T07:05:56;98769.19;;;30.24;43.63
7478;BME280;3780;42.424;25.636;2022-08-19T07:08:22;98718.75;;;29.93;43.64
7478;BME280;3780;42.424;25.636;2022-08-19T07:10:49;98772.72;;;30.60;42.50
7478;BME280;3780;42.424;25.636;2022-08-19T07:13:18;98769.09;;;30.88;42.12
7478;BME280;3780;42.424;25.636;2022-08-19T07:15:48;98763.13;;;30.82;41.53
7478;BME280;3780;42.424;25.636;2022-08-19T07:18:19;98732.16;;;30.66;43.04
7478;BME280;3780;42.424;25.636;2022-08-19T07:20:45;98643.63;;;30.22;41.54
7478;BME280;3780;42.424;25.636;2022-08-19T07:23:11;98767.81;;;31.07;40.58
7478;BME280;3780;42.424;25.636;2022-08-19T07:25:37;98733.59;;;31.10;41.25
7478;BME280;3780;42.424;25.636;2022-08-19T07:28:03;98715.22;;;31.16;41.29
7478;BME280;3780;42.424;25.636;2022-08-19T07:30:29;98735.81;;;31.40;40.26
7478;BME280;3780;42.424;25.636;2022-08-19T07:32:54;98756.84;;;31.52;39.63
7478;BME280;3780;42.424;25.636;2022-08-19T07:35:21;98708.06;;;31.22;39.73
7478;BME280;3780;42.424;25.636;2022-08-19T07:37:47;98755.22;;;31.58;39.73
7478;BME280;3780;42.424;25.636;2022-08-19T07:40:13;98760.56;;;31.93;39.29
7478;BME280;3780;42.424;25.636;2022-08-19T07:42:39;98750.19;;;31.97;38.28
7478;BME280;3780;42.424;25.636;2022-08-19T07:45:06;98748.13;;;32.01;38.74
7478;BME280;3780;42.424;25.636;2022-08-19T07:47:31;98745.97;;;32.20;37.99
7478;BME280;3780;42.424;25.636;2022-08-19T07:49:57;98763.03;;;32.33;38.48
7478;BME280;3780;42.424;25.636;2022-08-19T07:52:22;98766.47;;;32.47;37.43
7478;BME280;3780;42.424;25.636;2022-08-19T07:54:48;98741.84;;;32.39;36.90
7478;BME280;3780;42.424;25.636;2022-08-19T07:57:15;98731.84;;;32.41;36.88
7478;BME280;3780;42.424;25.636;2022-08-19T07:59:41;98739.56;;;32.64;37.34
7478;BME280;3780;42.424;25.636;2022-08-19T08:02:07;98732.31;;;33.04;36.29
7478;BME280;3780;42.424;25.636;2022-08-19T08:04:33;98666.38;;;32.76;35.83
7478;BME280;3780;42.424;25.636;2022-08-19T08:07:17;98708.06;;;33.25;35.94
7478;BME280;3780;42.424;25.636;2022-08-19T08:10:04;98715.09;;;33.87;34.95
7478;BME280;3780;42.424;25.636;2022-08-19T08:12:35;98701.13;;;33.87;34.14
7478;BME280;3780;42.424;25.636;2022-08-19T08:15:05;98737.47;;;33.90;33.71
7478;BME280;3780;42.424;25.636;2022-08-19T08:17:33;98740.38;;;34.07;34.12
7478;BME280;3780;42.424;25.636;2022-08-19T08:19:58;98734.31;;;34.12;34.10
7478;BME280;3780;42.424;25.636;2022-08-19T08:22:25;98733.47;;;34.38;33.56
7478;BME280;3780;42.424;25.636;2022-08-19T08:25:19;98746.19;;;34.82;34.79
7478;BME280;3780;42.424;25.636;2022-08-19T08:27:46;98743.47;;;35.19;31.25
7478;BME280;3780;42.424;25.636;2022-08-19T08:30:23;98709.09;;;35.14;32.40
7478;BME280;3780;42.424;25.636;2022-08-19T08:32:49;98736.03;;;35.48;30.72
7478;BME280;3780;42.424;25.636;2022-08-19T08:35:17;98693.41;;;35.01;30.31
7478;BME280;3780;42.424;25.636;2022-08-19T08:37:43;98731.22;;;35.29;31.16
7478;BME280;3780;42.424;25.636;2022-08-19T08:45:41;98716.03;;;35.62;29.99
7478;BME280;3780;42.424;25.636;2022-08-19T08:48:30;98703.25;;;35.61;29.67
7478;BME280;3780;42.424;25.636;2022-08-19T08:50:58;98718.25;;;35.87;30.12
7478;BME280;3780;42.424;25.636;2022-08-19T08:53:26;98714.72;;;35.67;29.48
7478;BME280;3780;42.424;25.636;2022-08-19T08:55:52;98696.34;;;35.30;30.53
7478;BME280;3780;42.424;25.636;2022-08-19T08:58:29;98706.91;;;35.42;30.17
7478;BME280;3780;42.424;25.636;2022-08-19T09:00:56;98639.47;;;35.13;30.61
7478;BME280;3780;42.424;25.636;2022-08-19T09:03:26;98706.13;;;35.74;29.26
7478;BME280;3780;42.424;25.636;2022-08-19T09:06:11;98636.94;;;35.19;30.07
7478;BME280;3780;42.424;25.636;2022-08-19T09:14:34;98698.22;;;36.76;29.92
7478;BME280;3780;42.424;25.636;2022-08-19T09:17:02;98689.97;;;37.74;27.23
7478;BME280;3780;42.424;25.636;2022-08-19T09:19:29;98688.53;;;38.51;24.48
7478;BME280;3780;42.424;25.636;2022-08-19T09:21:54;98684.38;;;38.87;23.55
7478;BME280;3780;42.424;25.636;2022-08-19T09:24:20;98686.34;;;38.34;23.59
7478;BME280;3780;42.424;25.636;2022-08-19T09:26:46;98683.97;;;37.97;24.33
7478;BME280;3780;42.424;25.636;2022-08-19T09:29:12;98700.91;;;37.47;24.92
7478;BME280;3780;42.424;25.636;2022-08-19T09:31:37;98651.22;;;36.64;25.57
7478;BME280;3780;42.424;25.636;2022-08-19T09:34:03;98679.84;;;37.00;25.92
7478;BME280;3780;42.424;25.636;2022-08-19T09:36:30;98686.31;;;37.52;24.85
7478;BME280;3780;42.424;25.636;2022-08-19T09:39:03;98662.44;;;38.04;24.55
7478;BME280;3780;42.424;25.636;2022-08-19T09:41:29;98691.69;;;38.75;22.64
7478;BME280;3780;42.424;25.636;2022-08-19T09:43:55;98687.19;;;39.40;23.14
7478;BME280;3780;42.424;25.636;2022-08-19T09:46:24;98690.94;;;39.46;21.64
7478;BME280;3780;42.424;25.636;2022-08-19T09:48:51;98676.81;;;39.06;21.57
7478;BME280;3780;42.424;25.636;2022-08-19T09:51:21;98682.34;;;39.09;21.96
7478;BME280;3780;42.424;25.636;2022-08-19T09:53:48;98690.66;;;39.13;21.06
7478;BME280;3780;42.424;25.636;2022-08-19T09:56:17;98687.31;;;39.86;21.72
7478;BME280;3780;42.424;25.636;2022-08-19T09:58:44;98674.13;;;39.33;20.96
7478;BME280;3780;42.424;25.636;2022-08-19T10:01:16;98665.03;;;39.79;20.76
7478;BME280;3780;42.424;25.636;2022-08-19T10:03:42;98618.47;;;39.92;20.42
7478;BME280;3780;42.424;25.636;2022-08-19T10:06:07;98600.06;;;40.61;19.61
7478;BME280;3780;42.424;25.636;2022-08-19T10:08:36;98672.72;;;41.73;18.96
7478;BME280;3780;42.424;25.636;2022-08-19T10:11:03;98670.41;;;42.10;19.39
7478;BME280;3780;42.424;25.636;2022-08-19T10:13:31;98668.22;;;41.90;18.05
7478;BME280;3780;42.424;25.636;2022-08-19T10:16:06;98675.59;;;41.87;18.47
7478;BME280;3780;42.424;25.636;2022-08-19T10:18:32;98669.66;;;42.63;18.33
7478;BME280;3780;42.424;25.636;2022-08-19T10:21:13;98656.75;;;42.91;17.77
7478;BME280;3780;42.424;25.636;2022-08-19T10:23:41;98676.13;;;43.08;17.22
7478;BME280;3780;42.424;25.636;2022-08-19T10:26:14;98671.22;;;42.79;17.68
7478;BME280;3780;42.424;25.636;2022-08-19T10:28:40;98673.78;;;42.62;17.24
7478;BME280;3780;42.424;25.636;2022-08-19T10:31:20;98629.72;;;40.66;18.88
7478;BME280;3780;42.424;25.636;2022-08-19T10:33:47;98636.53;;;40.04;20.24
7478;BME280;3780;42.424;25.636;2022-08-19T10:36:17;98653.78;;;40.15;20.39
7478;BME280;3780;42.424;25.636;2022-08-19T10:38:48;98649.56;;;40.20;20.50
7478;BME280;3780;42.424;25.636;2022-08-19T10:41:19;98659.59;;;40.21;19.98
7478;BME280;3780;42.424;25.636;2022-08-19T10:43:46;98648.44;;;40.54;19.63
7478;BME280;3780;42.424;25.636;2022-08-19T10:46:14;98664.50;;;41.51;19.18
7478;BME280;3780;42.424;25.636;2022-08-19T10:48:41;98660.25;;;42.57;17.53
7478;BME280;3780;42.424;25.636;2022-08-19T10:51:07;98646.88;;;43.01;17.68
7478;BME280;3780;42.424;25.636;2022-08-19T10:53:52;98643.66;;;43.44;17.11
7478;BME280;3780;42.424;25.636;2022-08-19T10:56:18;98654.00;;;43.62;16.90
7478;BME280;3780;42.424;25.636;2022-08-19T10:59:03;98647.31;;;43.65;17.57
7478;BME280;3780;42.424;25.636;2022-08-19T11:01:31;98647.84;;;43.13;17.63
7478;BME280;3780;42.424;25.636;2022-08-19T11:04:00;98643.34;;;42.77;18.03
7478;BME280;3780;42.424;25.636;2022-08-19T11:06:25;98619.34;;;42.19;18.14
7478;BME280;3780;42.424;25.636;2022-08-19T11:08:54;98624.44;;;41.91;18.64
7478;BME280;3780;42.424;25.636;2022-08-19T11:11:21;98617.91;;;42.00;18.31
7478;BME280;3780;42.424;25.636;2022-08-19T11:13:47;98617.22;;;42.58;17.83
7478;BME280;3780;42.424;25.636;2022-08-19T11:16:20;98593.94;;;42.98;16.98
7478;BME280;3780;42.424;25.636;2022-08-19T11:18:52;98634.03;;;44.17;15.74
7478;BME280;3780;42.424;25.636;2022-08-19T11:21:24;98644.31;;;44.87;15.13
7478;BME280;3780;42.424;25.636;2022-08-19T11:23:52;98622.81;;;43.32;16.36
7478;BME280;3780;42.424;25.636;2022-08-19T11:26:20;98615.44;;;42.46;17.03
7478;BME280;3780;42.424;25.636;2022-08-19T11:28:46;98625.00;;;43.22;16.51
7478;BME280;3780;42.424;25.636;2022-08-19T11:31:20;98639.94;;;43.93;15.95
7478;BME280;3780;42.424;25.636;2022-08-19T11:33:47;98602.56;;;44.47;14.77
7478;BME280;3780;42.424;25.636;2022-08-19T11:36:16;98625.94;;;44.88;14.12
7478;BME280;3780;42.424;25.636;2022-08-19T11:38:42;98602.88;;;43.82;14.79
7478;BME280;3780;42.424;25.636;2022-08-19T11:41:07;98625.59;;;43.62;15.43
7478;BME280;3780;42.424;25.636;2022-08-19T11:43:34;98630.09;;;44.35;15.02
7478;BME280;3780;42.424;25.636;2022-08-19T11:46:04;98579.09;;;44.26;14.45
7478;BME280;3780;42.424;25.636;2022-08-19T11:48:32;98598.25;;;44.83;14.71
7478;BME280;3780;42.424;25.636;2022-08-19T11:50:58;98618.56;;;45.33;14.57
7478;BME280;3780;42.424;25.636;2022-08-19T11:53:24;98599.72;;;45.41;14.08
7478;BME280;3780;42.424;25.636;2022-08-19T11:55:52;98588.25;;;44.93;14.50
7478;BME280;3780;42.424;25.636;2022-08-19T11:58:21;98569.56;;;45.23;13.43
7478;BME280;3780;42.424;25.636;2022-08-19T12:00:47;98591.81;;;45.68;14.17
7478;BME280;3780;42.424;25.636;2022-08-19T12:03:13;98616.28;;;45.91;13.44
7478;BME280;3780;42.424;25.636;2022-08-19T12:05:40;98617.75;;;44.64;14.88
7478;BME280;3780;42.424;25.636;2022-08-19T12:08:06;98623.75;;;44.71;14.72
7478;BME280;3780;42.424;25.636;2022-08-19T12:10:33;98567.09;;;44.16;15.68
7478;BME280;3780;42.424;25.636;2022-08-19T12:13:00;98568.22;;;44.50;14.88
7478;BME280;3780;42.424;25.636;2022-08-19T12:15:27;98580.38;;;45.14;14.79
7478;BME280;3780;42.424;25.636;2022-08-19T12:17:55;98614.19;;;45.97;14.14
7478;BME280;3780;42.424;25.636;2022-08-19T12:20:22;98598.47;;;46.19;13.56
7478;BME280;3780;42.424;25.636;2022-08-19T12:22:49;98585.19;;;46.04;13.48
7478;BME280;3780;42.424;25.636;2022-08-19T12:25:14;98586.81;;;46.11;13.51
7478;BME280;3780;42.424;25.636;2022-08-19T12:27:40;98553.81;;;45.88;13.38
7478;BME280;3780;42.424;25.636;2022-08-19T12:30:08;98515.56;;;44.97;14.43
7478;BME280;3780;42.424;25.636;2022-08-19T12:32:35;98607.91;;;45.71;14.51
7478;BME280;3780;42.424;25.636;2022-08-19T12:35:00;98531.41;;;45.58;13.29
7478;BME280;3780;42.424;25.636;2022-08-19T12:37:26;98583.31;;;45.73;14.26
7478;BME280;3780;42.424;25.636;2022-08-19T12:39:51;98603.09;;;46.05;13.55
7478;BME280;3780;42.424;25.636;2022-08-19T12:42:17;98563.94;;;46.00;13.53
7478;BME280;3780;42.424;25.636;2022-08-19T12:44:43;98551.84;;;45.51;13.68
7478;BME280;3780;42.424;25.636;2022-08-19T12:47:11;98577.75;;;44.79;14.16
7478;BME280;3780;42.424;25.636;2022-08-19T12:49:37;98592.53;;;44.51;14.51
7478;BME280;3780;42.424;25.636;2022-08-19T12:52:08;98581.56;;;43.72;15.13
7478;BME280;3780;42.424;25.636;2022-08-19T12:54:34;98596.81;;;43.54;15.84
7478;BME280;3780;42.424;25.636;2022-08-19T12:57:04;98524.81;;;42.81;15.98
7478;BME280;3780;42.424;25.636;2022-08-19T12:59:29;98575.50;;;43.09;16.10
7478;BME280;3780;42.424;25.636;2022-08-19T13:01:55;98534.72;;;42.41;16.09
7478;BME280;3780;42.424;25.636;2022-08-19T13:04:20;98590.16;;;42.04;16.79
7478;BME280;3780;42.424;25.636;2022-08-19T13:06:46;98573.28;;;41.47;17.51
7478;BME280;3780;42.424;25.636;2022-08-19T13:09:11;98498.00;;;40.59;17.87
7478;BME280;3780;42.424;25.636;2022-08-19T13:11:37;98571.94;;;40.58;18.05
7478;BME280;3780;42.424;25.636;2022-08-19T13:14:03;98576.22;;;40.35;18.27
7478;BME280;3780;42.424;25.636;2022-08-19T13:16:29;98523.72;;;39.64;18.46
7478;BME280;3780;42.424;25.636;2022-08-19T13:18:57;98576.88;;;39.84;18.81
7478;BME280;3780;42.424;25.636;2022-08-19T13:21:26;98543.38;;;39.27;19.44
7478;BME280;3780;42.424;25.636;2022-08-19T13:23:53;98520.50;;;39.16;19.68
7478;BME280;3780;42.424;25.636;2022-08-19T13:26:19;98576.50;;;39.45;19.20
7478;BME280;3780;42.424;25.636;2022-08-19T13:28:45;98570.34;;;39.19;20.02